»·PEaware :: N27AT KFUL-KGCN

N27AT :: KFUL-KGCN

FLIGHT INFORMATION

Flight Status: Arrived
Operator: Privately registered:
United States
More flights under this callsign
Pilot: Alex T. (33234)
Aircraft: BEECH AIRCRAFT BARON
(BE58)
More flights by this aircraft type
Origin: KFUL Fullerton Mun
United States
Destination: KGCN Grand Canyon Natl Park
United States
More flights between these airports :: More routes between these airports
Route: PDZ HEC
File this flight plan on PilotEdge
Remarks:
Altitude:
(Current/Filed)
9,500ft
Speed:
(Current/Filed)
180kts
Departed: 12-Nov-21 12:04 AM
Arrived: 12-Nov-21 01:49 AM
Distance/Time
Traveled:
313nm/1:45
Distance/Time
To Go:
Arrived

Flight Plot

Page will automatically refresh every two minutes.

Flight plan parsing failed; only flown route is shown


Map Options




Map Legend


Flown Route
Filed Route
Departure Airport
Arrival Airport
Navaid (VOR, NDB)
Fix

Horizontal Profiles

Position Reports

Time Latitude Longitude Heading Altitude Ground
Speed
11-Nov-21 23:44 33.872458 -117.982717 358 87ft 0kts
11-Nov-21 23:45 33.872458 -117.982717 358 87ft 0kts
11-Nov-21 23:46 33.872458 -117.982717 358 87ft 0kts
11-Nov-21 23:47 33.872458 -117.982717 358 87ft 0kts
11-Nov-21 23:48 33.872458 -117.982717 358 87ft 0kts
11-Nov-21 23:49 33.872458 -117.982717 358 87ft 0kts
11-Nov-21 23:50 33.872458 -117.982717 358 87ft 0kts
11-Nov-21 23:51 33.872458 -117.982717 358 87ft 0kts
11-Nov-21 23:52 33.872458 -117.982717 358 87ft 0kts
11-Nov-21 23:53 33.872458 -117.982717 358 87ft 0kts
11-Nov-21 23:54 33.872458 -117.982716 358 87ft 0kts
11-Nov-21 23:55 33.872458 -117.982716 358 87ft 0kts
11-Nov-21 23:56 33.872458 -117.982716 358 87ft 0kts
11-Nov-21 23:57 33.872458 -117.982716 358 87ft 0kts
11-Nov-21 23:58 33.872458 -117.982716 358 87ft 0kts
11-Nov-21 23:59 33.871668 -117.984587 257 82ft 8kts
12-Nov-21 00:00 33.871575 -117.984723 193 82ft 0kts
12-Nov-21 00:01 33.871575 -117.984723 193 82ft 0kts
12-Nov-21 00:02 33.871575 -117.984723 193 82ft 0kts
12-Nov-21 00:03 33.873668 -117.971830 79 430ft 135kts
12-Nov-21 00:04 33.877442 -117.926044 80 3495ft 135kts
12-Nov-21 00:05 33.882157 -117.879449 80 5910ft 150kts
12-Nov-21 00:06 33.887543 -117.828140 81 7511ft 170kts
12-Nov-21 00:07 33.893737 -117.768071 81 7510ft 185kts
12-Nov-21 00:08 33.900112 -117.706392 81 7504ft 187kts
12-Nov-21 00:09 33.906587 -117.643396 82 7504ft 190kts
12-Nov-21 00:10 33.913027 -117.580318 82 7505ft 190kts
12-Nov-21 00:11 33.925638 -117.520291 40 7499ft 189kts
12-Nov-21 00:12 33.963241 -117.476211 43 7503ft 189kts
12-Nov-21 00:13 34.000600 -117.431364 43 7504ft 189kts
12-Nov-21 00:14 34.037916 -117.386523 43 7509ft 189kts
12-Nov-21 00:15 34.072475 -117.345066 43 8506ft 162kts
12-Nov-21 00:16 34.104027 -117.307193 43 9461ft 157kts
12-Nov-21 00:17 34.137257 -117.267168 43 9510ft 174kts
12-Nov-21 00:18 34.171776 -117.225286 44 9513ft 180kts
12-Nov-21 00:19 34.208460 -117.181425 44 9512ft 192kts
12-Nov-21 00:20 34.246653 -117.135206 43 9509ft 195kts
12-Nov-21 00:21 34.285182 -117.088490 43 9510ft 195kts
12-Nov-21 00:22 34.323213 -117.042341 43 9510ft 192kts
12-Nov-21 00:23 34.360966 -116.996449 43 9495ft 192kts
12-Nov-21 00:24 34.398708 -116.950509 44 9496ft 192kts
12-Nov-21 00:25 34.436351 -116.904646 44 9494ft 192kts
12-Nov-21 00:26 34.474077 -116.858635 44 9495ft 192kts
12-Nov-21 00:27 34.511715 -116.812684 44 9500ft 192kts
12-Nov-21 00:28 34.549390 -116.766644 45 9507ft 192kts
12-Nov-21 00:29 34.586972 -116.720652 45 9511ft 192kts
12-Nov-21 00:30 34.624520 -116.674674 45 9509ft 192kts
12-Nov-21 00:31 34.662249 -116.628415 45 9509ft 192kts
12-Nov-21 00:32 34.699879 -116.582238 46 9508ft 192kts
12-Nov-21 00:33 34.737479 -116.536057 46 9500ft 192kts
12-Nov-21 00:34 34.775025 -116.489902 47 9499ft 192kts
12-Nov-21 00:35 34.803835 -116.437480 71 9508ft 192kts
12-Nov-21 00:36 34.821662 -116.376213 70 9512ft 192kts
12-Nov-21 00:37 34.839359 -116.314474 70 9508ft 192kts
12-Nov-21 00:38 34.856972 -116.252909 71 9502ft 192kts
12-Nov-21 00:39 34.874549 -116.191354 71 9498ft 192kts
12-Nov-21 00:40 34.892153 -116.129591 71 9508ft 192kts
12-Nov-21 00:41 34.909662 -116.068069 72 9509ft 192kts
12-Nov-21 00:42 34.927180 -116.006420 72 9505ft 192kts
12-Nov-21 00:43 34.944709 -115.944616 72 9508ft 192kts
12-Nov-21 00:45 34.962214 -115.882949 73 9505ft 192kts
12-Nov-21 00:46 34.979682 -115.821187 73 9507ft 192kts
12-Nov-21 00:47 34.997104 -115.759427 73 9510ft 192kts
12-Nov-21 00:48 35.014484 -115.697649 72 9508ft 192kts
12-Nov-21 00:49 35.031809 -115.635840 72 9507ft 192kts
12-Nov-21 00:50 35.049111 -115.573936 72 9512ft 192kts
12-Nov-21 00:51 35.066345 -115.512164 71 9511ft 193kts
12-Nov-21 00:52 35.083600 -115.450048 71 9510ft 193kts
12-Nov-21 00:53 35.100802 -115.387955 71 9505ft 192kts
12-Nov-21 00:54 35.117958 -115.325821 70 9504ft 192kts
12-Nov-21 00:55 35.135054 -115.263766 70 9500ft 192kts
12-Nov-21 00:56 35.152044 -115.201878 70 9496ft 192kts
12-Nov-21 00:57 35.169060 -115.139763 70 9493ft 192kts
12-Nov-21 00:58 35.186027 -115.077656 70 9491ft 192kts
12-Nov-21 00:59 35.202982 -115.015495 70 9499ft 192kts
12-Nov-21 01:00 35.219809 -114.953560 70 9492ft 192kts
12-Nov-21 01:01 35.236785 -114.891043 70 9492ft 192kts
12-Nov-21 01:02 35.253598 -114.828980 70 9498ft 192kts
12-Nov-21 01:03 35.270475 -114.766587 70 9507ft 192kts
12-Nov-21 01:04 35.287270 -114.704347 70 9502ft 193kts
12-Nov-21 01:05 35.304011 -114.642089 71 9507ft 192kts
12-Nov-21 01:06 35.320820 -114.579568 71 9500ft 192kts
12-Nov-21 01:07 35.337538 -114.517260 71 9507ft 192kts
12-Nov-21 01:08 35.354252 -114.454843 72 9510ft 193kts
12-Nov-21 01:09 35.370907 -114.392535 72 9507ft 193kts
12-Nov-21 01:09 35.385021 -114.340397 74 9510ft 192kts
12-Nov-21 01:11 35.404242 -114.267481 72 9512ft 192kts
12-Nov-21 01:12 35.420832 -114.205064 73 9512ft 192kts
12-Nov-21 01:13 35.437408 -114.142614 73 9503ft 193kts
12-Nov-21 01:14 35.454003 -114.080069 74 9502ft 192kts
12-Nov-21 01:14 35.468074 -114.027900 73 9497ft 193kts
12-Nov-21 01:15 35.484535 -113.965442 72 9497ft 193kts
12-Nov-21 01:16 35.500996 -113.902692 72 9497ft 193kts
12-Nov-21 01:18 35.520006 -113.829676 74 9499ft 193kts
12-Nov-21 01:19 35.536404 -113.767008 73 9504ft 193kts
12-Nov-21 01:19 35.549967 -113.714858 71 9514ft 193kts
12-Nov-21 01:20 35.566251 -113.652021 71 9502ft 193kts
12-Nov-21 01:21 35.582469 -113.589237 71 9498ft 193kts
12-Nov-21 01:22 35.598678 -113.526378 70 9498ft 193kts
12-Nov-21 01:23 35.614823 -113.463548 71 9492ft 193kts
12-Nov-21 01:24 35.630884 -113.400846 71 9503ft 192kts
12-Nov-21 01:25 35.646972 -113.337912 71 9509ft 193kts
12-Nov-21 01:26 35.663051 -113.274899 71 9507ft 193kts
12-Nov-21 01:27 35.679060 -113.212093 72 9506ft 193kts
12-Nov-21 01:28 35.695067 -113.149173 72 9509ft 193kts
12-Nov-21 01:29 35.711089 -113.086088 72 9506ft 193kts
12-Nov-21 01:30 35.727033 -113.023205 72 9508ft 193kts
12-Nov-21 01:31 35.742992 -112.960141 73 9506ft 193kts
12-Nov-21 01:32 35.758948 -112.897003 72 9504ft 192kts
12-Nov-21 01:33 35.774767 -112.834031 73 9503ft 193kts
12-Nov-21 01:34 35.790861 -112.771056 73 9502ft 193kts
12-Nov-21 01:35 35.806687 -112.707991 73 9502ft 193kts
12-Nov-21 01:36 35.821592 -112.648700 73 9492ft 175kts
12-Nov-21 01:37 35.838410 -112.592449 68 9493ft 175kts
12-Nov-21 01:38 35.855940 -112.536644 68 9493ft 175kts
12-Nov-21 01:39 35.871574 -112.480760 73 9493ft 162kts
12-Nov-21 01:40 35.884028 -112.428513 73 8966ft 152kts
12-Nov-21 01:41 35.895550 -112.379793 73 7955ft 147kts
12-Nov-21 01:42 35.907096 -112.330991 73 7106ft 142kts
12-Nov-21 01:43 35.917653 -112.287614 73 7092ft 133kts
12-Nov-21 01:44 35.928148 -112.244135 83 7089ft 120kts
12-Nov-21 01:45 35.926423 -112.204462 90 7108ft 126kts
12-Nov-21 01:46 35.931203 -112.169378 42 6740ft 88kts
12-Nov-21 01:47 35.947588 -112.152025 39 6557ft 56kts
12-Nov-21 01:48 35.952025 -112.146542 116 6574ft 9kts
12-Nov-21 01:49 35.951677 -112.146175 167 6575ft 6kts
12-Nov-21 01:50 35.950267 -112.145992 201 6572ft 0kts
12-Nov-21 01:51 35.950267 -112.145992 201 6572ft 0kts

Navigation Log

Ident Type
Flight plan parsing failed, navigation log unavailable